createdAt,value
2018-12-23T00:00:16.345Z,1012.99
2018-12-23T00:01:16.309Z,1013.05
2018-12-23T00:02:16.275Z,1013.04
2018-12-23T00:03:16.272Z,1013.05
2018-12-23T00:04:16.282Z,1013.06
2018-12-23T00:05:16.234Z,1013.01
2018-12-23T00:06:16.225Z,1013.06
2018-12-23T00:07:16.244Z,1012.98
2018-12-23T00:08:16.204Z,1013.02
2018-12-23T00:09:16.202Z,1013.06
2018-12-23T00:10:16.179Z,1013.06
2018-12-23T00:11:16.169Z,1013.04
2018-12-23T00:12:16.156Z,1013.11
2018-12-23T00:13:16.150Z,1013.06
2018-12-23T00:14:16.190Z,1013.08
2018-12-23T00:15:16.136Z,1013.07
2018-12-23T00:16:16.111Z,1013.06
2018-12-23T00:17:16.127Z,1013.01
2018-12-23T00:18:16.082Z,1012.97
2018-12-23T00:19:16.088Z,1013.04
2018-12-23T00:20:16.083Z,1013.07
2018-12-23T00:21:16.084Z,1013.09
2018-12-23T00:22:16.038Z,1013.12
2018-12-23T00:23:16.056Z,1013.14
2018-12-23T00:24:16.022Z,1013.11
2018-12-23T00:25:16.006Z,1013.12
2018-12-23T00:26:15.996Z,1013.16
2018-12-23T00:27:16.009Z,1013.12
2018-12-23T00:28:15.975Z,1013.12
2018-12-23T00:29:15.966Z,1013.13
2018-12-23T00:30:15.949Z,1013.16
2018-12-23T00:31:15.941Z,1013.17
2018-12-23T00:32:15.957Z,1013.14
2018-12-23T00:33:15.953Z,1013.16
2018-12-23T00:34:15.910Z,1013.13
2018-12-23T00:35:20.288Z,1013.15
2018-12-23T00:36:15.887Z,1013.16
2018-12-23T00:37:15.927Z,1013.16
2018-12-23T00:38:15.883Z,1013.18
2018-12-23T00:39:15.854Z,1013.21
2018-12-23T00:40:15.840Z,1013.26
2018-12-23T00:41:15.832Z,1013.18
2018-12-23T00:42:15.824Z,1013.25
2018-12-23T00:43:15.895Z,1013.27
2018-12-23T00:44:15.806Z,1013.28
2018-12-23T00:45:15.811Z,1013.28
2018-12-23T00:46:15.767Z,1013.26
2018-12-23T00:47:15.758Z,1013.22
2018-12-23T00:48:15.749Z,1013.19
2018-12-23T00:49:15.787Z,1013.20
2018-12-23T00:50:15.811Z,1013.21
2018-12-23T00:51:15.731Z,1013.29
2018-12-23T00:52:15.707Z,1013.32
2018-12-23T00:53:15.712Z,1013.36
2018-12-23T00:54:15.678Z,1013.35
2018-12-23T00:55:15.722Z,1013.35
2018-12-23T00:56:15.661Z,1013.33
2018-12-23T00:57:15.660Z,1013.32
2018-12-23T00:58:15.641Z,1013.34
2018-12-23T00:59:15.622Z,1013.36
2018-12-23T01:00:15.669Z,1013.35
2018-12-23T01:01:15.616Z,1013.32
2018-12-23T01:02:15.591Z,1013.36
2018-12-23T01:03:15.577Z,1013.34
2018-12-23T01:04:15.565Z,1013.36
2018-12-23T01:05:15.637Z,1013.36
2018-12-23T01:06:15.563Z,1013.39
2018-12-23T01:07:15.530Z,1013.42
2018-12-23T01:08:15.542Z,1013.42
2018-12-23T01:09:15.511Z,1013.41
2018-12-23T01:10:15.499Z,1013.42
2018-12-23T01:11:15.487Z,1013.42
2018-12-23T01:12:15.552Z,1013.43
2018-12-23T01:13:15.488Z,1013.39
2018-12-23T01:14:15.458Z,1013.33
2018-12-23T01:15:15.452Z,1013.42
2018-12-23T01:16:15.431Z,1013.43
2018-12-23T01:17:15.428Z,1013.40
2018-12-23T01:18:15.463Z,1013.44
2018-12-23T01:19:15.426Z,1013.47
2018-12-23T01:20:15.385Z,1013.46
2018-12-23T01:21:15.377Z,1013.52
2018-12-23T01:22:15.404Z,1013.54
2018-12-23T01:23:15.373Z,1013.53
2018-12-23T01:24:15.340Z,1013.49
2018-12-23T01:25:15.336Z,1013.50
2018-12-23T01:26:15.316Z,1013.47
2018-12-23T01:27:15.362Z,1013.54
2018-12-23T01:28:15.311Z,1013.51
2018-12-23T01:29:15.321Z,1013.52
2018-12-23T01:30:15.288Z,1013.53
2018-12-23T01:31:15.264Z,1013.53
2018-12-23T01:32:15.251Z,1013.51
2018-12-23T01:33:15.238Z,1013.55
2018-12-23T01:34:15.276Z,1013.52
2018-12-23T01:35:15.237Z,1013.54
2018-12-23T01:36:15.210Z,1013.53
2018-12-23T01:37:15.196Z,1013.55
2018-12-23T01:38:15.185Z,1013.54
2018-12-23T01:39:15.173Z,1013.54
2018-12-23T01:40:15.168Z,1013.57
2018-12-23T01:41:15.186Z,1013.57
2018-12-23T01:42:15.146Z,1013.59
2018-12-23T01:43:15.128Z,1013.56
2018-12-23T01:44:15.117Z,1013.54
2018-12-23T01:45:15.133Z,1013.57
2018-12-23T01:46:15.112Z,1013.50
2018-12-23T01:47:15.083Z,1013.52
2018-12-23T01:48:15.109Z,1013.53
2018-12-23T01:49:15.064Z,1013.51
2018-12-23T01:50:15.048Z,1013.53
2018-12-23T01:51:15.037Z,1013.52
2018-12-23T01:52:15.069Z,1013.61
2018-12-23T01:53:15.030Z,1013.61
2018-12-23T01:54:15.015Z,1013.64
2018-12-23T01:55:15.046Z,1013.69
2018-12-23T01:56:14.983Z,1013.70
2018-12-23T01:57:14.974Z,1013.69
2018-12-23T01:58:14.980Z,1013.71
2018-12-23T01:59:14.949Z,1013.70
2018-12-23T02:00:14.951Z,1013.69
2018-12-23T02:01:15.027Z,1013.68
2018-12-23T02:02:14.921Z,1013.71
2018-12-23T02:03:14.904Z,1013.71
2018-12-23T02:04:14.927Z,1013.73
2018-12-23T02:05:14.879Z,1013.73
2018-12-23T02:06:14.867Z,1013.76
2018-12-23T02:07:14.887Z,1013.75
2018-12-23T02:08:14.847Z,1013.77
2018-12-23T02:09:14.838Z,1013.74
2018-12-23T02:10:14.859Z,1013.77
2018-12-23T02:11:22.467Z,1013.77
2018-12-23T02:12:14.799Z,1013.71
2018-12-23T02:13:14.787Z,1013.79
2018-12-23T02:14:14.787Z,1013.74
2018-12-23T02:15:14.766Z,1013.71
2018-12-23T02:16:14.765Z,1013.81
2018-12-23T02:17:14.756Z,1013.78
2018-12-23T02:18:14.731Z,1013.78
2018-12-23T02:19:14.723Z,1013.77
2018-12-23T02:20:14.727Z,1013.79
2018-12-23T02:21:14.695Z,1013.78
2018-12-23T02:22:14.717Z,1013.74
2018-12-23T02:23:14.673Z,1013.74
2018-12-23T02:24:14.672Z,1013.74
2018-12-23T02:25:14.652Z,1013.76
2018-12-23T02:26:14.644Z,1013.75
2018-12-23T02:27:14.628Z,1013.80
2018-12-23T02:28:14.648Z,1013.78
2018-12-23T02:29:14.606Z,1013.77
2018-12-23T02:30:14.599Z,1013.74
2018-12-23T02:31:14.593Z,1013.74
2018-12-23T02:32:14.714Z,1013.73
2018-12-23T02:33:14.561Z,1013.77
2018-12-23T02:34:14.632Z,1013.73
2018-12-23T02:35:14.555Z,1013.73
2018-12-23T02:36:14.526Z,1013.69
2018-12-23T02:37:14.521Z,1013.71
2018-12-23T02:38:14.506Z,1013.71
2018-12-23T02:39:14.511Z,1013.74
2018-12-23T02:40:14.486Z,1013.72
2018-12-23T02:41:14.488Z,1013.65
2018-12-23T02:42:14.467Z,1013.75
2018-12-23T02:43:14.449Z,1013.73
2018-12-23T02:44:14.440Z,1013.74
2018-12-23T02:45:14.441Z,1013.74
2018-12-23T02:46:14.421Z,1013.78
2018-12-23T02:47:14.405Z,1013.78
2018-12-23T02:48:14.400Z,1013.73
2018-12-23T02:49:14.381Z,1013.75
2018-12-23T02:50:14.388Z,1013.74
2018-12-23T02:51:14.362Z,1013.76
2018-12-23T02:52:14.358Z,1013.72
2018-12-23T02:53:14.338Z,1013.75
2018-12-23T02:54:14.349Z,1013.70
2018-12-23T02:55:14.310Z,1013.72
2018-12-23T02:56:14.317Z,1013.72
2018-12-23T02:57:14.298Z,1013.78
2018-12-23T02:58:14.284Z,1013.77
2018-12-23T02:59:14.269Z,1013.74
2018-12-23T03:00:14.272Z,1013.77
2018-12-23T03:01:14.263Z,1013.75
2018-12-23T03:02:14.238Z,1013.73
2018-12-23T03:03:14.226Z,1013.73
2018-12-23T03:04:14.211Z,1013.69
2018-12-23T03:05:14.205Z,1013.69
2018-12-23T03:06:14.203Z,1013.67
2018-12-23T03:07:14.198Z,1013.72
2018-12-23T03:08:14.172Z,1013.73
2018-12-23T03:09:14.156Z,1013.71
2018-12-23T03:10:14.145Z,1013.65
2018-12-23T03:11:14.137Z,1013.66
2018-12-23T03:12:14.127Z,1013.71
2018-12-23T03:13:14.139Z,1013.69
2018-12-23T03:14:14.099Z,1013.74
2018-12-23T03:15:14.098Z,1013.74
2018-12-23T03:16:14.075Z,1013.66
2018-12-23T03:17:14.064Z,1013.65
2018-12-23T03:18:14.055Z,1013.70
2018-12-23T03:19:14.067Z,1013.73
2018-12-23T03:20:14.035Z,1013.77
2018-12-23T03:21:14.031Z,1013.82
2018-12-23T03:22:14.033Z,1013.81
2018-12-23T03:23:14.000Z,1013.82
2018-12-23T03:24:14.005Z,1013.84
2018-12-23T03:25:13.998Z,1013.78
2018-12-23T03:26:13.967Z,1013.80
2018-12-23T03:27:13.951Z,1013.78
2018-12-23T03:28:13.962Z,1013.77
2018-12-23T03:29:13.932Z,1013.81
2018-12-23T03:30:13.922Z,1013.80
2018-12-23T03:31:13.929Z,1013.77
2018-12-23T03:32:13.901Z,1013.76
2018-12-23T03:33:13.892Z,1013.77
2018-12-23T03:34:13.918Z,1013.80
2018-12-23T03:35:13.864Z,1013.81
2018-12-23T03:36:15.235Z,1013.87
2018-12-23T03:37:13.840Z,1013.85
2018-12-23T03:38:13.830Z,1013.81
2018-12-23T03:39:13.823Z,1013.80
2018-12-23T03:40:13.808Z,1013.81
2018-12-23T03:41:13.831Z,1013.81
2018-12-23T03:42:13.803Z,1013.77
2018-12-23T03:43:13.772Z,1013.77
2018-12-23T03:44:13.760Z,1013.67
2018-12-23T03:45:13.748Z,1013.73
2018-12-23T03:46:13.742Z,1013.72
2018-12-23T03:47:13.728Z,1013.73
2018-12-23T03:48:13.749Z,1013.73
2018-12-23T03:49:13.719Z,1013.73
2018-12-23T03:50:13.693Z,1013.74
2018-12-23T03:51:13.693Z,1013.66
2018-12-23T03:52:13.671Z,1013.72
2018-12-23T03:53:13.662Z,1013.70
2018-12-23T03:54:13.657Z,1013.69
2018-12-23T03:55:13.653Z,1013.70
2018-12-23T03:56:13.627Z,1013.65
2018-12-23T03:57:13.626Z,1013.64
2018-12-23T03:58:13.610Z,1013.65
2018-12-23T03:59:13.611Z,1013.59
2018-12-23T04:00:13.579Z,1013.60
2018-12-23T04:01:13.622Z,1013.57
2018-12-23T04:02:13.566Z,1013.56
2018-12-23T04:03:13.552Z,1013.57
2018-12-23T04:04:13.543Z,1013.58
2018-12-23T04:05:13.524Z,1013.60
2018-12-23T04:06:13.533Z,1013.63
2018-12-23T04:07:13.522Z,1013.63
2018-12-23T04:08:13.505Z,1013.66
2018-12-23T04:09:13.506Z,1013.64
2018-12-23T04:10:13.492Z,1013.66
2018-12-23T04:11:13.457Z,1013.65
2018-12-23T04:12:13.462Z,1013.66
2018-12-23T04:13:13.437Z,1013.64
2018-12-23T04:14:13.429Z,1013.62
2018-12-23T04:15:13.415Z,1013.59
2018-12-23T04:16:13.441Z,1013.62
2018-12-23T04:17:13.401Z,1013.65
2018-12-23T04:18:13.403Z,1013.61
2018-12-23T04:19:13.368Z,1013.61
2018-12-23T04:20:13.539Z,1013.54
2018-12-23T04:21:13.342Z,1013.58
2018-12-23T04:22:13.332Z,1013.56
2018-12-23T04:23:13.359Z,1013.51
2018-12-23T04:24:13.312Z,1013.52
2018-12-23T04:25:13.303Z,1013.51
2018-12-23T04:26:13.288Z,1013.48
2018-12-23T04:27:13.279Z,1013.49
2018-12-23T04:28:13.265Z,1013.47
2018-12-23T04:29:13.310Z,1013.50
2018-12-23T04:30:13.247Z,1013.50
2018-12-23T04:31:13.238Z,1013.51
2018-12-23T04:32:13.225Z,1013.46
2018-12-23T04:33:13.212Z,1013.40
2018-12-23T04:34:13.205Z,1013.44
2018-12-23T04:35:13.205Z,1013.42
2018-12-23T04:36:13.188Z,1013.41
2018-12-23T04:37:13.177Z,1013.39
2018-12-23T04:38:13.153Z,1013.39
2018-12-23T04:39:13.142Z,1013.35
2018-12-23T04:40:13.137Z,1013.34
2018-12-23T04:41:13.135Z,1013.31
2018-12-23T04:42:13.124Z,1013.33
2018-12-23T04:43:13.096Z,1013.31
2018-12-23T04:44:13.105Z,1013.32
2018-12-23T04:45:13.074Z,1013.33
2018-12-23T04:46:13.062Z,1013.34
2018-12-23T04:47:13.086Z,1013.33
2018-12-23T04:48:13.049Z,1013.32
2018-12-23T04:49:13.044Z,1013.36
2018-12-23T04:50:13.036Z,1013.36
2018-12-23T04:51:13.014Z,1013.28
2018-12-23T04:52:13.011Z,1013.29
2018-12-23T04:53:13.000Z,1013.31
2018-12-23T04:54:12.973Z,1013.32
2018-12-23T04:55:12.975Z,1013.34
2018-12-23T04:56:12.959Z,1013.27
2018-12-23T04:57:12.965Z,1013.31
2018-12-23T04:58:12.928Z,1013.29
2018-12-23T04:59:12.928Z,1013.23
2018-12-23T05:00:12.908Z,1013.19
2018-12-23T05:01:12.909Z,1013.23
2018-12-23T05:02:12.885Z,1013.18
2018-12-23T05:03:12.875Z,1013.22
2018-12-23T05:04:12.870Z,1013.15
2018-12-23T05:05:12.853Z,1013.19
2018-12-23T05:06:12.861Z,1013.17
2018-12-23T05:07:12.830Z,1013.17
2018-12-23T05:08:12.855Z,1013.12
2018-12-23T05:09:12.807Z,1013.10
2018-12-23T05:10:12.797Z,1013.08
2018-12-23T05:11:12.788Z,1013.09
2018-12-23T05:12:12.787Z,1013.03
2018-12-23T05:13:12.761Z,1012.98
2018-12-23T05:14:12.768Z,1013.00
2018-12-23T05:15:12.761Z,1013.01
2018-12-23T05:16:12.734Z,1012.95
2018-12-23T05:17:12.725Z,1013.00
2018-12-23T05:18:12.706Z,1013.02
2018-12-23T05:19:12.697Z,1012.98
2018-12-23T05:20:12.717Z,1013.00
2018-12-23T05:21:12.670Z,1013.00
2018-12-23T05:22:12.660Z,1013.05
2018-12-23T05:23:12.647Z,1013.06
2018-12-23T05:24:12.655Z,1013.05
2018-12-23T05:25:12.627Z,1013.04
2018-12-23T05:26:12.632Z,1013.07
2018-12-23T05:27:12.620Z,1013.06
2018-12-23T05:28:12.605Z,1013.10
2018-12-23T05:29:12.583Z,1013.06
2018-12-23T05:30:12.572Z,1013.04
2018-12-23T05:31:12.575Z,1013.03
2018-12-23T05:32:12.546Z,1013.04
2018-12-23T05:33:12.559Z,1013.07
2018-12-23T05:34:12.526Z,1013.08
2018-12-23T05:35:12.514Z,1013.13
2018-12-23T05:36:12.506Z,1013.19
2018-12-23T05:37:12.503Z,1013.14
2018-12-23T05:38:12.482Z,1013.12
2018-12-23T05:39:12.483Z,1013.26
2018-12-23T05:40:12.457Z,1013.22
2018-12-23T05:41:12.450Z,1013.19
2018-12-23T05:42:12.434Z,1013.24
2018-12-23T05:43:12.441Z,1013.25
2018-12-23T05:44:12.429Z,1013.29
2018-12-23T05:45:12.403Z,1013.28
2018-12-23T05:46:12.395Z,1013.34
2018-12-23T05:47:12.379Z,1013.29
2018-12-23T05:48:12.367Z,1013.33
2018-12-23T05:49:12.381Z,1013.34
2018-12-23T05:50:12.368Z,1013.32
2018-12-23T05:51:12.364Z,1013.25
2018-12-23T05:52:12.321Z,1013.33
2018-12-23T05:53:12.311Z,1013.31
2018-12-23T05:54:12.305Z,1013.32
2018-12-23T05:55:12.288Z,1013.29
2018-12-23T05:56:12.325Z,1013.27
2018-12-23T05:57:12.267Z,1013.29
2018-12-23T05:58:12.253Z,1013.28
2018-12-23T05:59:12.243Z,1013.31
2018-12-23T06:00:12.230Z,1013.25
2018-12-23T06:01:12.248Z,1013.26
2018-12-23T06:02:12.236Z,1013.29
2018-12-23T06:03:12.199Z,1013.32
2018-12-23T06:04:12.190Z,1013.30
2018-12-23T06:05:12.177Z,1013.31
2018-12-23T06:06:12.170Z,1013.29
2018-12-23T06:07:12.174Z,1013.34
2018-12-23T06:08:12.157Z,1013.35
2018-12-23T06:09:12.132Z,1013.37
2018-12-23T06:10:12.122Z,1013.36
2018-12-23T06:11:12.108Z,1013.43
2018-12-23T06:12:12.097Z,1013.39
2018-12-23T06:13:12.103Z,1013.42
2018-12-23T06:14:12.106Z,1013.33
2018-12-23T06:15:12.066Z,1013.37
2018-12-23T06:16:12.053Z,1013.34
2018-12-23T06:17:12.048Z,1013.34
2018-12-23T06:18:12.030Z,1013.34
2018-12-23T06:19:12.134Z,1013.31
2018-12-23T06:20:12.024Z,1013.27
2018-12-23T06:21:11.997Z,1013.31
2018-12-23T06:22:11.983Z,1013.32
2018-12-23T06:23:11.973Z,1013.29
2018-12-23T06:24:11.976Z,1013.37
2018-12-23T06:25:11.957Z,1013.35
2018-12-23T06:26:11.948Z,1013.33
2018-12-23T06:27:11.933Z,1013.32
2018-12-23T06:28:11.943Z,1013.34
2018-12-23T06:29:11.906Z,1013.33
2018-12-23T06:30:11.907Z,1013.34
2018-12-23T06:31:11.882Z,1013.34
2018-12-23T06:32:11.872Z,1013.41
2018-12-23T06:33:11.861Z,1013.35
2018-12-23T06:34:11.889Z,1013.39
2018-12-23T06:35:11.837Z,1013.41
2018-12-23T06:36:11.826Z,1013.37
2018-12-23T06:37:11.819Z,1013.39
2018-12-23T06:38:11.803Z,1013.42
2018-12-23T06:39:11.801Z,1013.43
2018-12-23T06:40:11.791Z,1013.43
2018-12-23T06:41:11.801Z,1013.47
2018-12-23T06:42:11.760Z,1013.49
2018-12-23T06:43:11.748Z,1013.52
2018-12-23T06:44:11.737Z,1013.52
2018-12-23T06:45:11.722Z,1013.49
2018-12-23T06:46:11.712Z,1013.53
2018-12-23T06:47:11.721Z,1013.52
2018-12-23T06:48:11.697Z,1013.55
2018-12-23T06:49:11.688Z,1013.54
2018-12-23T06:50:11.669Z,1013.52
2018-12-23T06:51:11.658Z,1013.53
2018-12-23T06:52:11.646Z,1013.51
2018-12-23T06:53:11.646Z,1013.53
2018-12-23T06:54:11.625Z,1013.54
2018-12-23T06:55:11.611Z,1013.54
2018-12-23T06:56:11.627Z,1013.49
2018-12-23T06:57:11.589Z,1013.51
2018-12-23T06:58:11.594Z,1013.56
2018-12-23T06:59:11.579Z,1013.55
2018-12-23T07:00:11.554Z,1013.53
2018-12-23T07:01:11.544Z,1013.49
2018-12-23T07:02:11.557Z,1013.53
2018-12-23T07:03:11.523Z,1013.49
2018-12-23T07:04:11.529Z,1013.57
2018-12-23T07:05:11.502Z,1013.57
2018-12-23T07:06:11.508Z,1013.59
2018-12-23T07:07:18.615Z,1013.59
2018-12-23T07:08:12.503Z,1013.57
2018-12-23T07:09:11.456Z,1013.58
2018-12-23T07:10:11.446Z,1013.58
2018-12-23T07:11:11.435Z,1013.57
2018-12-23T07:12:11.441Z,1013.58
2018-12-23T07:13:11.408Z,1013.59
2018-12-23T07:14:11.426Z,1013.56
2018-12-23T07:15:11.393Z,1013.59
2018-12-23T07:16:11.376Z,1013.51
2018-12-23T07:17:11.363Z,1013.55
2018-12-23T07:18:11.371Z,1013.52
2018-12-23T07:19:11.346Z,1013.49
2018-12-23T07:20:11.354Z,1013.55
2018-12-23T07:21:11.334Z,1013.50
2018-12-23T07:22:11.310Z,1013.53
2018-12-23T07:23:11.298Z,1013.48
2018-12-23T07:24:11.297Z,1013.52
2018-12-23T07:25:11.276Z,1013.51
2018-12-23T07:26:11.296Z,1013.53
2018-12-23T07:27:11.255Z,1013.57
2018-12-23T07:28:11.249Z,1013.55
2018-12-23T07:29:11.246Z,1013.54
2018-12-23T07:30:11.224Z,1013.55
2018-12-23T07:31:11.211Z,1013.57
2018-12-23T07:32:11.196Z,1013.53
2018-12-23T07:33:11.210Z,1013.51
2018-12-23T07:34:11.175Z,1013.52
2018-12-23T07:35:11.179Z,1013.54
2018-12-23T07:36:11.152Z,1013.55
2018-12-23T07:37:11.140Z,1013.54
2018-12-23T07:38:11.135Z,1013.51
2018-12-23T07:39:11.127Z,1013.47
2018-12-23T07:40:11.142Z,1013.46
2018-12-23T07:41:11.111Z,1013.44
2018-12-23T07:42:11.086Z,1013.40
2018-12-23T07:43:11.078Z,1013.38
2018-12-23T07:44:11.066Z,1013.34
2018-12-23T07:45:11.056Z,1013.38
2018-12-23T07:46:11.108Z,1013.33
2018-12-23T07:47:11.033Z,1013.32
2018-12-23T07:48:11.036Z,1013.30
2018-12-23T07:49:11.007Z,1013.33
2018-12-23T07:50:10.994Z,1013.38
2018-12-23T07:51:10.985Z,1013.37
2018-12-23T07:52:10.995Z,1013.40
2018-12-23T07:53:10.961Z,1013.37
2018-12-23T07:54:10.980Z,1013.37
2018-12-23T07:55:10.939Z,1013.43
2018-12-23T07:56:10.930Z,1013.37
2018-12-23T07:57:10.927Z,1013.41
2018-12-23T07:58:10.908Z,1013.45
2018-12-23T07:59:10.911Z,1013.47
2018-12-23T08:00:10.898Z,1013.43
2018-12-23T08:01:10.870Z,1013.44
2018-12-23T08:02:10.859Z,1013.46
2018-12-23T08:03:10.849Z,1013.49
2018-12-23T08:04:10.838Z,1013.41
2018-12-23T08:05:10.856Z,1013.40
2018-12-23T08:06:10.829Z,1013.41
2018-12-23T08:07:10.804Z,1013.42
2018-12-23T08:08:10.817Z,1013.34
2018-12-23T08:09:10.805Z,1013.36
2018-12-23T08:10:10.773Z,1013.36
2018-12-23T08:11:10.776Z,1013.33
2018-12-23T08:12:10.746Z,1013.24
2018-12-23T08:13:21.005Z,1013.30
2018-12-23T08:14:10.726Z,1013.27
2018-12-23T08:15:10.737Z,1013.29
2018-12-23T08:16:10.706Z,1013.26
2018-12-23T08:17:10.691Z,1013.29
2018-12-23T08:18:10.733Z,1013.30
2018-12-23T08:19:10.679Z,1013.22
2018-12-23T08:20:10.682Z,1013.24
2018-12-23T08:21:10.651Z,1013.26
2018-12-23T08:22:10.634Z,1013.26
2018-12-23T08:23:10.640Z,1013.28
2018-12-23T08:24:10.636Z,1013.33
2018-12-23T08:25:10.619Z,1013.34
2018-12-23T08:26:10.589Z,1013.33
2018-12-23T08:27:10.580Z,1013.28
2018-12-23T08:28:10.582Z,1013.32
2018-12-23T08:29:10.556Z,1013.31
2018-12-23T08:30:10.557Z,1013.29
2018-12-23T08:31:10.537Z,1013.28
2018-12-23T08:32:10.520Z,1013.26
2018-12-23T08:33:10.512Z,1013.27
2018-12-23T08:34:10.521Z,1013.26
2018-12-23T08:35:10.490Z,1013.27
2018-12-23T08:36:10.494Z,1013.24
2018-12-23T08:37:10.473Z,1013.25
2018-12-23T08:38:10.460Z,1013.26
2018-12-23T08:39:10.450Z,1013.25
2018-12-23T08:40:10.448Z,1013.23
2018-12-23T08:41:10.427Z,1013.22
2018-12-23T08:42:10.428Z,1013.23
2018-12-23T08:43:10.399Z,1013.23
2018-12-23T08:44:10.466Z,1013.22
2018-12-23T08:45:10.389Z,1013.23
2018-12-23T08:46:10.416Z,1013.23
2018-12-23T08:47:10.356Z,1013.23
2018-12-23T08:48:10.361Z,1013.18
2018-12-23T08:49:10.331Z,1013.26
2018-12-23T08:50:10.325Z,1013.25
2018-12-23T08:51:10.310Z,1013.24
2018-12-23T08:52:10.328Z,1013.27
2018-12-23T08:53:10.290Z,1013.27
2018-12-23T08:54:10.283Z,1013.30
2018-12-23T08:55:10.272Z,1013.33
2018-12-23T08:56:10.259Z,1013.31
2018-12-23T08:57:10.246Z,1013.35
2018-12-23T08:58:10.229Z,1013.34
2018-12-23T08:59:10.258Z,1013.33
2018-12-23T09:00:10.207Z,1013.30
2018-12-23T09:01:10.199Z,1013.33
2018-12-23T09:02:10.204Z,1013.32
2018-12-23T09:03:10.178Z,1013.30
2018-12-23T09:04:10.165Z,1013.32
2018-12-23T09:05:10.155Z,1013.36
2018-12-23T09:06:10.182Z,1013.36
2018-12-23T09:07:10.130Z,1013.30
2018-12-23T09:08:10.158Z,1013.32
2018-12-23T09:09:10.117Z,1013.33
2018-12-23T09:10:10.120Z,1013.38
2018-12-23T09:11:10.087Z,1013.37
2018-12-23T09:12:10.082Z,1013.37
2018-12-23T09:13:10.062Z,1013.36
2018-12-23T09:14:10.067Z,1013.39
2018-12-23T09:15:10.040Z,1013.38
2018-12-23T09:16:10.049Z,1013.37
2018-12-23T09:17:10.021Z,1013.33
2018-12-23T09:18:10.025Z,1013.35
2018-12-23T09:19:09.993Z,1013.34
2018-12-23T09:20:09.984Z,1013.27
2018-12-23T09:21:09.988Z,1013.31
2018-12-23T09:22:09.978Z,1013.30
2018-12-23T09:23:09.952Z,1013.30
2018-12-23T09:24:09.991Z,1013.34
2018-12-23T09:25:09.929Z,1013.29
2018-12-23T09:26:09.917Z,1013.32
2018-12-23T09:27:09.905Z,1013.31
2018-12-23T09:28:09.911Z,1013.30
2018-12-23T09:29:09.884Z,1013.34
2018-12-23T09:30:09.892Z,1013.31
2018-12-23T09:31:09.861Z,1013.27
2018-12-23T09:32:09.850Z,1013.32
2018-12-23T09:33:09.877Z,1013.26
2018-12-23T09:34:09.832Z,1013.29
2018-12-23T09:35:09.818Z,1013.27
2018-12-23T09:36:09.831Z,1013.26
2018-12-23T09:37:09.794Z,1013.27
2018-12-23T09:38:09.782Z,1013.26
2018-12-23T09:39:09.786Z,1013.30
2018-12-23T09:40:09.760Z,1013.25
2018-12-23T09:41:09.749Z,1013.27
2018-12-23T09:42:09.783Z,1013.25
2018-12-23T09:43:09.730Z,1013.22
2018-12-23T09:44:09.746Z,1013.28
2018-12-23T09:45:09.707Z,1013.26
2018-12-23T09:46:09.698Z,1013.26
2018-12-23T09:47:09.682Z,1013.28
2018-12-23T09:48:09.682Z,1013.28
2018-12-23T09:49:09.660Z,1013.30
2018-12-23T09:50:09.667Z,1013.30
2018-12-23T09:51:09.636Z,1013.29
2018-12-23T09:52:09.630Z,1013.26
2018-12-23T09:53:09.613Z,1013.31
2018-12-23T09:54:09.602Z,1013.27
2018-12-23T09:55:09.622Z,1013.22
2018-12-23T09:56:09.595Z,1013.24
2018-12-23T09:57:09.568Z,1013.26
2018-12-23T09:58:09.563Z,1013.20
2018-12-23T09:59:09.550Z,1013.16
2018-12-23T10:00:09.538Z,1013.15
2018-12-23T10:01:09.578Z,1013.08
2018-12-23T10:02:09.534Z,1013.15
2018-12-23T10:03:09.499Z,1013.09
2018-12-23T10:04:09.490Z,1013.05
2018-12-23T10:05:09.482Z,1013.10
2018-12-23T10:06:09.466Z,1013.04
2018-12-23T10:07:09.472Z,1013.01
2018-12-23T10:08:10.284Z,1013.00
2018-12-23T10:09:09.436Z,1013.03
2018-12-23T10:10:09.507Z,1013.00
2018-12-23T10:11:09.412Z,1013.00
2018-12-23T10:12:09.399Z,1012.95
2018-12-23T10:13:09.400Z,1012.98
2018-12-23T10:14:09.402Z,1013.01
2018-12-23T10:15:09.366Z,1013.04
2018-12-23T10:16:09.357Z,1013.11
2018-12-23T10:17:09.344Z,1013.08
2018-12-23T10:18:09.350Z,1013.03
2018-12-23T10:19:09.331Z,1013.00
2018-12-23T10:20:09.333Z,1012.92
2018-12-23T10:21:10.222Z,1012.85
2018-12-23T10:22:09.299Z,1012.84
2018-12-23T10:23:09.278Z,1012.86
2018-12-23T10:24:09.278Z,1012.80
2018-12-23T10:25:09.256Z,1012.76
2018-12-23T10:26:09.259Z,1012.76
2018-12-23T10:27:09.232Z,1012.78
2018-12-23T10:28:09.219Z,1012.76
2018-12-23T10:29:09.220Z,1012.77
2018-12-23T10:30:09.201Z,1012.77
2018-12-23T10:31:09.213Z,1012.73
2018-12-23T10:32:09.180Z,1012.79
2018-12-23T10:33:09.166Z,1012.74
2018-12-23T10:34:09.181Z,1012.67
2018-12-23T10:35:09.143Z,1012.70
2018-12-23T10:36:09.135Z,1012.63
2018-12-23T10:37:09.126Z,1012.60
2018-12-23T10:38:09.112Z,1012.62
2018-12-23T10:39:09.102Z,1012.59
2018-12-23T10:40:09.113Z,1012.54
2018-12-23T10:41:09.096Z,1012.64
2018-12-23T10:42:09.071Z,1012.60
2018-12-23T10:43:09.052Z,1012.62
2018-12-23T10:44:09.040Z,1012.51
2018-12-23T10:45:09.029Z,1012.50
2018-12-23T10:46:09.015Z,1012.49
2018-12-23T10:47:09.032Z,1012.46
2018-12-23T10:48:09.042Z,1012.44
2018-12-23T10:49:08.982Z,1012.49
2018-12-23T10:50:08.975Z,1012.49
2018-12-23T10:51:08.965Z,1012.45
2018-12-23T10:52:08.978Z,1012.45
2018-12-23T10:53:08.945Z,1012.44
2018-12-23T10:54:08.954Z,1012.36
2018-12-23T10:55:08.916Z,1012.36
2018-12-23T10:56:08.904Z,1012.37
2018-12-23T10:57:08.898Z,1012.31
2018-12-23T10:58:08.906Z,1012.32
2018-12-23T10:59:08.883Z,1012.29
2018-12-23T11:00:08.860Z,1012.30
2018-12-23T11:01:08.850Z,1012.28
2018-12-23T11:02:13.657Z,1012.27
2018-12-23T11:03:09.843Z,1012.26
2018-12-23T11:04:08.818Z,1012.21
2018-12-23T11:05:08.806Z,1012.20
2018-12-23T11:06:08.794Z,1012.15
2018-12-23T11:07:08.785Z,1012.20
2018-12-23T11:08:08.791Z,1012.21
2018-12-23T11:09:08.780Z,1012.23
2018-12-23T11:10:08.751Z,1012.26
2018-12-23T11:11:08.738Z,1012.27
2018-12-23T11:12:08.724Z,1012.26
2018-12-23T11:13:08.715Z,1012.27
2018-12-23T11:14:08.703Z,1012.17
2018-12-23T11:15:08.730Z,1012.14
2018-12-23T11:16:08.681Z,1012.12
2018-12-23T11:17:08.670Z,1012.10
2018-12-23T11:18:08.658Z,1012.08
2018-12-23T11:19:08.650Z,1012.07
2018-12-23T11:20:08.650Z,1012.07
2018-12-23T11:21:08.629Z,1012.08
2018-12-23T11:22:08.629Z,1012.09
2018-12-23T11:23:08.600Z,1012.07
2018-12-23T11:24:08.591Z,1012.02
2018-12-23T11:25:08.584Z,1012.05
2018-12-23T11:26:08.579Z,1012.02
2018-12-23T11:27:08.555Z,1012.05
2018-12-23T11:28:08.569Z,1012.03
2018-12-23T11:29:08.532Z,1012.03
2018-12-23T11:30:08.523Z,1011.99
2018-12-23T11:31:08.528Z,1011.99
2018-12-23T11:32:08.500Z,1011.94
2018-12-23T11:33:08.492Z,1011.91
2018-12-23T11:34:08.489Z,1011.85
2018-12-23T11:35:08.472Z,1011.84
2018-12-23T11:36:08.459Z,1011.86
2018-12-23T11:37:08.454Z,1011.83
2018-12-23T11:38:08.449Z,1011.82
2018-12-23T11:39:08.419Z,1011.82
2018-12-23T11:40:08.422Z,1011.78
2018-12-23T11:41:08.401Z,1011.75
2018-12-23T11:42:08.386Z,1011.80
2018-12-23T11:43:08.376Z,1011.74
2018-12-23T11:44:08.382Z,1011.63
2018-12-23T11:45:08.356Z,1011.54
2018-12-23T11:46:08.359Z,1011.57
2018-12-23T11:47:08.333Z,1011.55
2018-12-23T11:48:08.325Z,1011.55
2018-12-23T11:49:08.312Z,1011.54
2018-12-23T11:50:08.326Z,1011.49
2018-12-23T11:51:08.287Z,1011.51
2018-12-23T11:52:08.305Z,1011.52
2018-12-23T11:53:08.263Z,1011.43
2018-12-23T11:54:08.253Z,1011.47
2018-12-23T11:55:08.246Z,1011.37
2018-12-23T11:56:08.279Z,1011.36
2018-12-23T11:57:08.217Z,1011.40
2018-12-23T11:58:08.237Z,1011.38
2018-12-23T11:59:08.195Z,1011.43
2018-12-23T12:00:08.187Z,1011.43
2018-12-23T12:01:08.172Z,1011.40
2018-12-23T12:02:15.103Z,1011.37
2018-12-23T12:03:09.249Z,1011.33
2018-12-23T12:04:08.157Z,1011.31
2018-12-23T12:05:08.133Z,1011.28